sensor_id;sensor_type;location;lat;lon;timestamp;pressure;altitude;pressure_sealevel;temperature;humidity
37132;BME280;23035;50.032;21.978;2022-12-18T00:03:09;64814.00;;;-3.46;100.00
37132;BME280;23035;50.032;21.978;2022-12-18T00:08:17;64741.53;;;-4.13;100.00
37132;BME280;23035;50.032;21.978;2022-12-18T00:13:21;64831.19;;;-3.25;100.00
37132;BME280;23035;50.032;21.978;2022-12-18T00:18:26;64739.84;;;-4.17;100.00
37132;BME280;23035;50.032;21.978;2022-12-18T00:23:33;64714.00;;;-4.40;100.00
37132;BME280;23035;50.032;21.978;2022-12-18T00:28:40;64769.84;;;-3.81;100.00
37132;BME280;23035;50.032;21.978;2022-12-18T00:33:45;64789.84;;;-3.64;100.00
37132;BME280;23035;50.032;21.978;2022-12-18T00:38:56;64797.69;;;-3.59;100.00
37132;BME280;23035;50.032;21.978;2022-12-18T00:44:00;64771.44;;;-3.80;100.00
37132;BME280;23035;50.032;21.978;2022-12-18T00:49:04;64753.84;;;-3.99;100.00
37132;BME280;23035;50.032;21.978;2022-12-18T00:54:10;64751.59;;;-4.04;100.00
37132;BME280;23035;50.032;21.978;2022-12-18T00:59:15;64700.22;;;-4.53;100.00
37132;BME280;23035;50.032;21.978;2022-12-18T01:04:19;64676.72;;;-4.80;100.00
37132;BME280;23035;50.032;21.978;2022-12-18T01:09:25;64718.22;;;-4.36;100.00
37132;BME280;23035;50.032;21.978;2022-12-18T01:14:28;64737.81;;;-4.17;100.00
37132;BME280;23035;50.032;21.978;2022-12-18T01:19:34;64737.81;;;-4.17;100.00
37132;BME280;23035;50.032;21.978;2022-12-18T01:24:40;64743.66;;;-4.11;100.00
37132;BME280;23035;50.032;21.978;2022-12-18T01:29:45;64732.00;;;-4.22;100.00
37132;BME280;23035;50.032;21.978;2022-12-18T01:34:50;64648.34;;;-5.03;100.00
37132;BME280;23035;50.032;21.978;2022-12-18T01:39:57;64625.06;;;-5.25;100.00
37132;BME280;23035;50.032;21.978;2022-12-18T01:45:08;64628.47;;;-5.17;100.00
37132;BME280;23035;50.032;21.978;2022-12-18T01:50:30;64622.13;;;-5.23;100.00
37132;BME280;23035;50.032;21.978;2022-12-18T01:55:39;64652.59;;;-4.99;100.00
37132;BME280;23035;50.032;21.978;2022-12-18T02:00:45;64672.72;;;-4.79;100.00
37132;BME280;23035;50.032;21.978;2022-12-18T02:05:58;64589.66;;;-5.59;100.00
37132;BME280;23035;50.032;21.978;2022-12-18T02:11:10;64677.88;;;-4.77;100.00
37132;BME280;23035;50.032;21.978;2022-12-18T02:16:21;64673.66;;;-4.81;100.00
37132;BME280;23035;50.032;21.978;2022-12-18T02:21:34;64631.84;;;-5.21;100.00
37132;BME280;23035;50.032;21.978;2022-12-18T02:26:46;64641.50;;;-5.09;100.00
37132;BME280;23035;50.032;21.978;2022-12-18T02:31:58;64703.09;;;-4.45;100.00
37132;BME280;23035;50.032;21.978;2022-12-18T02:37:06;64638.00;;;-5.08;100.00
37132;BME280;23035;50.032;21.978;2022-12-18T02:42:15;64595.44;;;-5.54;100.00
37132;BME280;23035;50.032;21.978;2022-12-18T02:47:23;64608.81;;;-5.38;100.00
37132;BME280;23035;50.032;21.978;2022-12-18T02:52:31;64684.25;;;-4.71;100.00
37132;BME280;23035;50.032;21.978;2022-12-18T02:57:52;64676.81;;;-4.78;100.00
37132;BME280;23035;50.032;21.978;2022-12-18T03:03:05;64576.94;;;-5.71;100.00
37132;BME280;23035;50.032;21.978;2022-12-18T03:08:17;64609.84;;;-5.37;100.00
37132;BME280;23035;50.032;21.978;2022-12-18T03:13:30;64657.88;;;-4.94;100.00
37132;BME280;23035;50.032;21.978;2022-12-18T03:18:40;64672.47;;;-4.84;100.00
37132;BME280;23035;50.032;21.978;2022-12-18T03:23:49;64656.81;;;-4.95;100.00
37132;BME280;23035;50.032;21.978;2022-12-18T03:29:04;64633.66;;;-5.14;100.00
37132;BME280;23035;50.032;21.978;2022-12-18T03:34:14;64619.13;;;-5.33;100.00
37132;BME280;23035;50.032;21.978;2022-12-18T03:39:22;64599.81;;;-5.47;100.00
37132;BME280;23035;50.032;21.978;2022-12-18T03:44:38;64732.66;;;-4.19;100.00
37132;BME280;23035;50.032;21.978;2022-12-18T03:49:48;64692.28;;;-4.60;100.00
37132;BME280;23035;50.032;21.978;2022-12-18T03:54:58;64622.19;;;-5.33;100.00
37132;BME280;23035;50.032;21.978;2022-12-18T04:00:08;64644.91;;;-5.01;100.00
37132;BME280;23035;50.032;21.978;2022-12-18T04:05:16;64595.44;;;-5.54;100.00
37132;BME280;23035;50.032;21.978;2022-12-18T04:10:21;64583.81;;;-5.65;100.00
37132;BME280;23035;50.032;21.978;2022-12-18T04:15:28;64536.06;;;-6.03;100.00
37132;BME280;23035;50.032;21.978;2022-12-18T04:20:34;64608.97;;;-5.45;100.00
37132;BME280;23035;50.032;21.978;2022-12-18T04:25:38;64542.59;;;-6.04;100.00
37132;BME280;23035;50.032;21.978;2022-12-18T04:30:48;64620.84;;;-5.29;100.00
37132;BME280;23035;50.032;21.978;2022-12-18T04:35:55;64621.25;;;-5.31;100.00
37132;BME280;23035;50.032;21.978;2022-12-18T04:41:00;64646.66;;;-5.07;100.00
37132;BME280;23035;50.032;21.978;2022-12-18T04:46:07;64559.50;;;-5.88;100.00
37132;BME280;23035;50.032;21.978;2022-12-18T04:51:12;64629.72;;;-5.23;100.00
37132;BME280;23035;50.032;21.978;2022-12-18T04:56:26;64644.13;;;-5.07;100.00
37132;BME280;23035;50.032;21.978;2022-12-18T05:01:34;64625.06;;;-5.25;100.00
37132;BME280;23035;50.032;21.978;2022-12-18T05:06:38;64584.47;;;-5.62;100.00
37132;BME280;23035;50.032;21.978;2022-12-18T05:11:43;64619.78;;;-5.30;100.00
37132;BME280;23035;50.032;21.978;2022-12-18T05:16:49;64611.44;;;-5.36;100.00
37132;BME280;23035;50.032;21.978;2022-12-18T05:21:53;64644.66;;;-5.06;100.00
37132;BME280;23035;50.032;21.978;2022-12-18T05:26:57;64600.75;;;-5.49;100.00
37132;BME280;23035;50.032;21.978;2022-12-18T05:32:03;64574.81;;;-5.73;100.00
37132;BME280;23035;50.032;21.978;2022-12-18T05:37:07;64557.91;;;-5.90;100.00
37132;BME280;23035;50.032;21.978;2022-12-18T05:42:11;64552.22;;;-5.93;100.00
37132;BME280;23035;50.032;21.978;2022-12-18T05:47:17;64573.25;;;-5.75;100.00
37132;BME280;23035;50.032;21.978;2022-12-18T05:52:21;64588.97;;;-5.62;100.00
37132;BME280;23035;50.032;21.978;2022-12-18T05:57:25;64586.34;;;-5.65;100.00
37132;BME280;23035;50.032;21.978;2022-12-18T06:02:31;64642.00;;;-5.09;100.00
37132;BME280;23035;50.032;21.978;2022-12-18T06:07:35;64685.41;;;-4.67;100.00
37132;BME280;23035;50.032;21.978;2022-12-18T06:12:39;64607.09;;;-5.42;100.00
37132;BME280;23035;50.032;21.978;2022-12-18T06:17:45;64621.91;;;-5.28;100.00
37132;BME280;23035;50.032;21.978;2022-12-18T06:22:49;64647.28;;;-5.04;100.00
37132;BME280;23035;50.032;21.978;2022-12-18T06:27:53;64654.72;;;-4.97;100.00
37132;BME280;23035;50.032;21.978;2022-12-18T06:32:59;64654.72;;;-4.97;100.00
37132;BME280;23035;50.032;21.978;2022-12-18T06:38:05;64676.94;;;-4.75;100.00
37132;BME280;23035;50.032;21.978;2022-12-18T06:43:09;64698.63;;;-4.54;100.00
37132;BME280;23035;50.032;21.978;2022-12-18T06:48:18;64678.41;;;-4.76;100.00
37132;BME280;23035;50.032;21.978;2022-12-18T06:53:22;64669.53;;;-4.82;100.00
37132;BME280;23035;50.032;21.978;2022-12-18T06:58:27;64688.56;;;-4.64;100.00
37132;BME280;23035;50.032;21.978;2022-12-18T07:03:33;64746.19;;;-4.11;100.00
37132;BME280;23035;50.032;21.978;2022-12-18T07:08:41;64734.00;;;-4.23;100.00
37132;BME280;23035;50.032;21.978;2022-12-18T07:13:46;64733.06;;;-4.21;100.00
37132;BME280;23035;50.032;21.978;2022-12-18T07:18:51;64756.38;;;-3.99;100.00
37132;BME280;23035;50.032;21.978;2022-12-18T07:23:56;64719.28;;;-4.35;100.00
37132;BME280;23035;50.032;21.978;2022-12-18T07:29:00;64724.06;;;-4.30;100.00
37132;BME280;23035;50.032;21.978;2022-12-18T07:34:10;64751.91;;;-4.08;100.00
37132;BME280;23035;50.032;21.978;2022-12-18T07:39:14;64741.66;;;-4.11;100.00
37132;BME280;23035;50.032;21.978;2022-12-18T07:44:22;64691.78;;;-4.61;100.00
37132;BME280;23035;50.032;21.978;2022-12-18T07:49:28;64723.53;;;-4.30;100.00
37132;BME280;23035;50.032;21.978;2022-12-18T07:54:32;64720.34;;;-4.34;100.00
37132;BME280;23035;50.032;21.978;2022-12-18T07:59:36;64804.16;;;-3.51;100.00
37132;BME280;23035;50.032;21.978;2022-12-18T08:04:42;64727.75;;;-4.26;100.00
37132;BME280;23035;50.032;21.978;2022-12-18T08:09:47;64749.59;;;-4.03;100.00
37132;BME280;23035;50.032;21.978;2022-12-18T08:14:51;64753.19;;;-4.02;100.00
37132;BME280;23035;50.032;21.978;2022-12-18T08:19:56;64740.47;;;-4.14;100.00
37132;BME280;23035;50.032;21.978;2022-12-18T08:25:00;64881.44;;;-2.79;100.00
37132;BME280;23035;50.032;21.978;2022-12-18T08:30:08;64760.59;;;-3.95;100.00
37132;BME280;23035;50.032;21.978;2022-12-18T08:35:13;64753.72;;;-4.01;100.00
37132;BME280;23035;50.032;21.978;2022-12-18T08:40:20;64802.69;;;-3.50;100.00
37132;BME280;23035;50.032;21.978;2022-12-18T08:45:24;64738.13;;;-4.21;100.00
37132;BME280;23035;50.032;21.978;2022-12-18T08:50:30;64712.94;;;-4.41;100.00
37132;BME280;23035;50.032;21.978;2022-12-18T08:55:34;64798.63;;;-3.61;100.00
37132;BME280;23035;50.032;21.978;2022-12-18T09:00:39;64808.72;;;-3.51;100.00
37132;BME280;23035;50.032;21.978;2022-12-18T09:05:45;64849.63;;;-3.09;100.00
37132;BME280;23035;50.032;21.978;2022-12-18T09:10:50;64840.72;;;-3.15;100.00
37132;BME280;23035;50.032;21.978;2022-12-18T09:15:55;64809.34;;;-3.48;100.00
37132;BME280;23035;50.032;21.978;2022-12-18T09:21:07;64913.91;;;-2.45;100.00
37132;BME280;23035;50.032;21.978;2022-12-18T09:26:12;64988.94;;;-1.68;100.00
37132;BME280;23035;50.032;21.978;2022-12-18T09:31:17;64875.31;;;-2.80;100.00
37132;BME280;23035;50.032;21.978;2022-12-18T09:36:23;64839.44;;;-3.22;100.00
37132;BME280;23035;50.032;21.978;2022-12-18T09:41:42;64822.59;;;-3.35;100.00
37132;BME280;23035;50.032;21.978;2022-12-18T09:46:50;64825.34;;;-3.30;100.00
37132;BME280;23035;50.032;21.978;2022-12-18T09:52:02;64872.13;;;-2.83;100.00
37132;BME280;23035;50.032;21.978;2022-12-18T09:57:12;64869.25;;;-2.91;100.00
37132;BME280;23035;50.032;21.978;2022-12-18T10:02:18;64880.38;;;-2.80;100.00
37132;BME280;23035;50.032;21.978;2022-12-18T10:07:31;64760.19;;;-3.93;100.00
37132;BME280;23035;50.032;21.978;2022-12-18T10:12:46;64861.53;;;-2.93;100.00
37132;BME280;23035;50.032;21.978;2022-12-18T10:18:00;64875.72;;;-2.82;100.00
37132;BME280;23035;50.032;21.978;2022-12-18T10:23:16;64955.69;;;-2.08;100.00
37132;BME280;23035;50.032;21.978;2022-12-18T10:28:23;64920.59;;;-2.44;100.00
37132;BME280;23035;50.032;21.978;2022-12-18T10:33:30;64923.03;;;-2.34;100.00
37132;BME280;23035;50.032;21.978;2022-12-18T10:38:36;64802.44;;;-3.55;100.00
37132;BME280;23035;50.032;21.978;2022-12-18T10:43:41;64886.75;;;-2.74;100.00
37132;BME280;23035;50.032;21.978;2022-12-18T10:48:53;64883.44;;;-2.79;100.00
37132;BME280;23035;50.032;21.978;2022-12-18T10:54:01;64769.06;;;-3.87;100.00
37132;BME280;23035;50.032;21.978;2022-12-18T10:59:12;64826.50;;;-3.39;100.00
37132;BME280;23035;50.032;21.978;2022-12-18T11:04:19;64809.56;;;-3.43;100.00
37132;BME280;23035;50.032;21.978;2022-12-18T11:09:29;64901.81;;;-2.54;100.00
37132;BME280;23035;50.032;21.978;2022-12-18T11:14:42;64884.75;;;-2.73;100.00
37132;BME280;23035;50.032;21.978;2022-12-18T11:19:52;64825.88;;;-3.30;100.00
37132;BME280;23035;50.032;21.978;2022-12-18T11:25:01;64803.53;;;-3.54;100.00
37132;BME280;23035;50.032;21.978;2022-12-18T11:30:27;64726.19;;;-4.28;100.00
37132;BME280;23035;50.032;21.978;2022-12-18T11:35:42;64840.09;;;-3.19;100.00
37132;BME280;23035;50.032;21.978;2022-12-18T11:40:56;64904.25;;;-2.57;100.00
37132;BME280;23035;50.032;21.978;2022-12-18T11:46:05;64733.06;;;-4.21;100.00
37132;BME280;23035;50.032;21.978;2022-12-18T11:51:13;64859.69;;;-3.00;100.00
37132;BME280;23035;50.032;21.978;2022-12-18T11:56:29;64786.03;;;-3.70;100.00
37132;BME280;23035;50.032;21.978;2022-12-18T12:01:42;64801.06;;;-3.63;100.00
37132;BME280;23035;50.032;21.978;2022-12-18T12:06:55;64751.59;;;-4.04;100.00
37132;BME280;23035;50.032;21.978;2022-12-18T12:12:18;64780.63;;;-3.78;100.00
37132;BME280;23035;50.032;21.978;2022-12-18T12:17:32;64743.53;;;-4.14;100.00
37132;BME280;23035;50.032;21.978;2022-12-18T12:22:45;64756.38;;;-3.99;100.00
37132;BME280;23035;50.032;21.978;2022-12-18T12:33:55;64716.13;;;-4.38;100.00
37132;BME280;23035;50.032;21.978;2022-12-18T12:39:08;64790.50;;;-3.61;100.00
37132;BME280;23035;50.032;21.978;2022-12-18T12:44:18;64809.88;;;-3.48;100.00
37132;BME280;23035;50.032;21.978;2022-12-18T12:49:29;64790.25;;;-3.66;100.00
37132;BME280;23035;50.032;21.978;2022-12-18T12:54:43;64818.34;;;-3.39;100.00
37132;BME280;23035;50.032;21.978;2022-12-18T12:59:52;64798.22;;;-3.59;100.00
37132;BME280;23035;50.032;21.978;2022-12-18T13:05:09;64861.94;;;-2.95;100.00
37132;BME280;23035;50.032;21.978;2022-12-18T13:10:32;64891.22;;;-2.65;100.00
37132;BME280;23035;50.032;21.978;2022-12-18T13:15:39;64886.22;;;-2.74;100.00
37132;BME280;23035;50.032;21.978;2022-12-18T13:20:50;64922.28;;;-2.40;100.00
37132;BME280;23035;50.032;21.978;2022-12-18T13:26:39;64912.84;;;-2.46;100.00
37132;BME280;23035;50.032;21.978;2022-12-18T13:37:43;64899.47;;;-2.62;100.00
37132;BME280;23035;50.032;21.978;2022-12-18T13:42:49;64823.13;;;-3.35;100.00
37132;BME280;23035;50.032;21.978;2022-12-18T13:48:19;64891.63;;;-2.67;100.00
37132;BME280;23035;50.032;21.978;2022-12-18T13:53:28;64720.47;;;-4.31;100.00
37132;BME280;23035;50.032;21.978;2022-12-18T13:58:33;64798.75;;;-3.58;100.00
37132;BME280;23035;50.032;21.978;2022-12-18T14:03:38;64757.84;;;-4.00;100.00
37132;BME280;23035;50.032;21.978;2022-12-18T14:08:45;64786.97;;;-3.72;100.00
37132;BME280;23035;50.032;21.978;2022-12-18T14:13:50;64698.63;;;-4.54;100.00
37132;BME280;23035;50.032;21.978;2022-12-18T14:18:56;64686.34;;;-4.69;100.00
37132;BME280;23035;50.032;21.978;2022-12-18T14:24:19;64694.41;;;-4.58;100.00
37132;BME280;23035;50.032;21.978;2022-12-18T14:29:26;64684.88;;;-4.68;100.00
37132;BME280;23035;50.032;21.978;2022-12-18T14:34:31;64691.13;;;-4.64;100.00
37132;BME280;23035;50.032;21.978;2022-12-18T14:39:37;64747.88;;;-4.07;100.00
37132;BME280;23035;50.032;21.978;2022-12-18T14:44:41;64784.13;;;-3.67;100.00
37132;BME280;23035;50.032;21.978;2022-12-18T14:50:12;64808.81;;;-3.49;100.00
37132;BME280;23035;50.032;21.978;2022-12-18T14:55:20;64786.13;;;-3.68;100.00
37132;BME280;23035;50.032;21.978;2022-12-18T15:00:25;64704.22;;;-4.54;100.00
37132;BME280;23035;50.032;21.978;2022-12-18T15:05:31;64799.28;;;-3.58;100.00
37132;BME280;23035;50.032;21.978;2022-12-18T15:10:46;64771.72;;;-3.84;100.00
37132;BME280;23035;50.032;21.978;2022-12-18T15:16:21;64781.38;;;-3.72;100.00
37132;BME280;23035;50.032;21.978;2022-12-18T15:21:25;64784.97;;;-3.71;100.00
37132;BME280;23035;50.032;21.978;2022-12-18T15:26:36;64758.47;;;-3.97;100.00
37132;BME280;23035;50.032;21.978;2022-12-18T15:31:42;64798.97;;;-3.53;100.00
37132;BME280;23035;50.032;21.978;2022-12-18T15:36:50;64890.97;;;-2.70;100.00
37132;BME280;23035;50.032;21.978;2022-12-18T15:41:54;64973.75;;;-1.90;100.00
37132;BME280;23035;50.032;21.978;2022-12-18T15:47:17;64929.59;;;-2.35;100.00
37132;BME280;23035;50.032;21.978;2022-12-18T15:52:21;64851.13;;;-2.98;100.00
37132;BME280;23035;50.032;21.978;2022-12-18T15:57:28;64894.81;;;-2.64;100.00
37132;BME280;23035;50.032;21.978;2022-12-18T16:02:34;64850.59;;;-3.11;100.00
37132;BME280;23035;50.032;21.978;2022-12-18T16:07:38;64884.50;;;-2.78;100.00
37132;BME280;23035;50.032;21.978;2022-12-18T16:12:43;64790.59;;;-3.71;100.00
37132;BME280;23035;50.032;21.978;2022-12-18T16:17:48;64914.31;;;-2.47;100.00
37132;BME280;23035;50.032;21.978;2022-12-18T16:22:52;64806.81;;;-3.48;100.00
37132;BME280;23035;50.032;21.978;2022-12-18T16:27:57;64772.13;;;-3.86;100.00
37132;BME280;23035;50.032;21.978;2022-12-18T16:33:02;64786.66;;;-3.67;100.00
37132;BME280;23035;50.032;21.978;2022-12-18T16:38:08;64911.38;;;-2.45;100.00
37132;BME280;23035;50.032;21.978;2022-12-18T16:43:12;64860.22;;;-2.99;100.00
37132;BME280;23035;50.032;21.978;2022-12-18T16:48:18;64960.47;;;-2.03;100.00
37132;BME280;23035;50.032;21.978;2022-12-18T16:53:22;64923.75;;;-2.41;100.00
37132;BME280;23035;50.032;21.978;2022-12-18T16:58:27;64827.38;;;-3.31;100.00
37132;BME280;23035;50.032;21.978;2022-12-18T17:03:32;64887.81;;;-2.73;100.00
37132;BME280;23035;50.032;21.978;2022-12-18T17:08:37;64871.06;;;-2.84;100.00
37132;BME280;23035;50.032;21.978;2022-12-18T17:13:41;64764.84;;;-3.91;100.00
37132;BME280;23035;50.032;21.978;2022-12-18T17:18:47;64869.88;;;-2.88;100.00
37132;BME280;23035;50.032;21.978;2022-12-18T17:23:51;64823.13;;;-3.35;100.00
37132;BME280;23035;50.032;21.978;2022-12-18T17:28:56;64940.84;;;-2.22;100.00
37132;BME280;23035;50.032;21.978;2022-12-18T17:34:02;64939.78;;;-2.23;99.97
37132;BME280;23035;50.032;21.978;2022-12-18T17:39:07;64791.84;;;-3.65;100.00
37132;BME280;23035;50.032;21.978;2022-12-18T17:44:11;64847.50;;;-3.11;100.00
37132;BME280;23035;50.032;21.978;2022-12-18T17:49:17;64821.53;;;-3.36;100.00
37132;BME280;23035;50.032;21.978;2022-12-18T17:54:21;64889.28;;;-2.74;100.00
37132;BME280;23035;50.032;21.978;2022-12-18T17:59:26;64860.22;;;-2.99;100.00
37132;BME280;23035;50.032;21.978;2022-12-18T18:04:31;64881.53;;;-2.76;100.00
37132;BME280;23035;50.032;21.978;2022-12-18T18:09:35;64867.13;;;-2.93;100.00
37132;BME280;23035;50.032;21.978;2022-12-18T18:14:40;64986.59;;;-1.76;95.70
37132;BME280;23035;50.032;21.978;2022-12-18T18:19:46;64876.69;;;-2.83;100.00
37132;BME280;23035;50.032;21.978;2022-12-18T18:24:51;64912.63;;;-2.51;99.80
37132;BME280;23035;50.032;21.978;2022-12-18T18:29:56;64919.09;;;-2.43;98.53
37132;BME280;23035;50.032;21.978;2022-12-18T18:35:01;64753.19;;;-4.02;100.00
37132;BME280;23035;50.032;21.978;2022-12-18T18:40:06;64840.31;;;-3.13;100.00
37132;BME280;23035;50.032;21.978;2022-12-18T18:45:10;64799.81;;;-3.57;100.00
37132;BME280;23035;50.032;21.978;2022-12-18T18:50:16;64750.44;;;-4.07;100.00
37132;BME280;23035;50.032;21.978;2022-12-18T18:55:21;64868.41;;;-2.86;100.00
37132;BME280;23035;50.032;21.978;2022-12-18T19:00:27;65013.03;;;-1.53;96.18
37132;BME280;23035;50.032;21.978;2022-12-18T19:05:33;65047.66;;;-1.17;86.78
37132;BME280;23035;50.032;21.978;2022-12-18T19:10:38;65000.81;;;-1.64;92.80
37132;BME280;23035;50.032;21.978;2022-12-18T19:15:43;64998.16;;;-1.67;95.05
37132;BME280;23035;50.032;21.978;2022-12-18T19:20:58;65018.03;;;-1.43;93.22
37132;BME280;23035;50.032;21.978;2022-12-18T19:26:04;64899.47;;;-2.62;98.02
37132;BME280;23035;50.032;21.978;2022-12-18T19:31:29;64755.84;;;-3.99;100.00
37132;BME280;23035;50.032;21.978;2022-12-18T19:36:40;64845.41;;;-3.13;100.00
37132;BME280;23035;50.032;21.978;2022-12-18T19:41:45;64873.78;;;-2.91;100.00
37132;BME280;23035;50.032;21.978;2022-12-18T19:46:52;64832.91;;;-3.21;100.00
37132;BME280;23035;50.032;21.978;2022-12-18T19:51:59;64941.91;;;-2.21;98.44
37132;BME280;23035;50.032;21.978;2022-12-18T19:57:06;64874.25;;;-2.81;97.28
37132;BME280;23035;50.032;21.978;2022-12-18T20:02:13;64842.19;;;-3.17;97.12
37132;BME280;23035;50.032;21.978;2022-12-18T20:07:19;64815.06;;;-3.45;100.00
37132;BME280;23035;50.032;21.978;2022-12-18T20:12:24;64770.13;;;-3.86;100.00
37132;BME280;23035;50.032;21.978;2022-12-18T20:17:28;64838.41;;;-3.23;100.00
37132;BME280;23035;50.032;21.978;2022-12-18T20:22:34;64866.59;;;-2.93;100.00
37132;BME280;23035;50.032;21.978;2022-12-18T20:27:38;64744.06;;;-4.13;100.00
37132;BME280;23035;50.032;21.978;2022-12-18T20:32:43;64680.09;;;-4.72;100.00
37132;BME280;23035;50.032;21.978;2022-12-18T20:37:48;64795.56;;;-3.61;100.00
37132;BME280;23035;50.032;21.978;2022-12-18T20:42:53;64856.09;;;-3.01;100.00
37132;BME280;23035;50.032;21.978;2022-12-18T20:47:58;64703.94;;;-4.49;100.00
37132;BME280;23035;50.032;21.978;2022-12-18T20:53:04;64739.41;;;-4.15;100.00
37132;BME280;23035;50.032;21.978;2022-12-18T20:58:08;64924.94;;;-2.37;96.16
37132;BME280;23035;50.032;21.978;2022-12-18T21:03:13;64888.97;;;-2.69;96.47
37132;BME280;23035;50.032;21.978;2022-12-18T21:08:22;64982.25;;;-1.82;88.19
37132;BME280;23035;50.032;21.978;2022-12-18T21:13:27;64798.97;;;-3.53;100.00
37132;BME280;23035;50.032;21.978;2022-12-18T21:18:34;64907.84;;;-2.56;98.75
37132;BME280;23035;50.032;21.978;2022-12-18T21:24:05;64933.94;;;-2.28;89.57
37132;BME280;23035;50.032;21.978;2022-12-18T21:29:38;64872.94;;;-2.87;95.92
37132;BME280;23035;50.032;21.978;2022-12-18T21:34:59;64882.50;;;-2.78;95.81
37132;BME280;23035;50.032;21.978;2022-12-18T21:40:16;64935.22;;;-2.22;91.27
37132;BME280;23035;50.032;21.978;2022-12-18T21:45:26;64915.06;;;-2.42;91.34
37132;BME280;23035;50.032;21.978;2022-12-18T21:50:41;64836.59;;;-3.17;92.71
37132;BME280;23035;50.032;21.978;2022-12-18T21:56:46;64772.38;;;-3.81;100.00
37132;BME280;23035;50.032;21.978;2022-12-18T22:02:01;64736.25;;;-4.18;100.00
37132;BME280;23035;50.032;21.978;2022-12-18T22:07:48;64932.34;;;-2.30;91.20
37132;BME280;23035;50.032;21.978;2022-12-18T22:13:20;64873.72;;;-2.81;97.98
37132;BME280;23035;50.032;21.978;2022-12-18T22:18:41;64784.56;;;-3.69;100.00
37132;BME280;23035;50.032;21.978;2022-12-18T22:24:09;64621.50;;;-5.26;100.00
37132;BME280;23035;50.032;21.978;2022-12-18T22:29:19;64786.03;;;-3.70;100.00
37132;BME280;23035;50.032;21.978;2022-12-18T22:34:43;64682.25;;;-4.70;100.00
37132;BME280;23035;50.032;21.978;2022-12-18T22:39:54;64578.94;;;-5.72;100.00
37132;BME280;23035;50.032;21.978;2022-12-18T22:45:10;64600.34;;;-5.46;100.00
37132;BME280;23035;50.032;21.978;2022-12-18T22:50:23;64642.44;;;-5.11;100.00
